createdAt,value
2019-02-23T00:00:44.245Z,0.10
2019-02-23T00:03:10.985Z,0.00
2019-02-23T00:05:38.446Z,0.00
2019-02-23T00:08:06.518Z,0.00
2019-02-23T00:10:33.256Z,0.00
2019-02-23T00:12:59.997Z,0.10
2019-02-23T00:15:26.736Z,0.10
2019-02-23T00:17:54.298Z,0.10
2019-02-23T00:20:21.137Z,0.10
2019-02-23T00:22:47.980Z,0.10
2019-02-23T00:25:15.438Z,0.10
2019-02-23T00:27:42.180Z,0.10
2019-02-23T00:30:09.126Z,0.10
2019-02-23T00:32:35.971Z,0.20
2019-02-23T00:35:03.629Z,0.10
2019-02-23T00:37:30.476Z,0.10
2019-02-23T00:39:57.862Z,0.10
2019-02-23T00:42:24.674Z,0.10
2019-02-23T00:44:51.410Z,0.20
2019-02-23T00:47:18.774Z,0.10
2019-02-23T00:49:45.609Z,0.10
2019-02-23T00:52:12.567Z,0.10
2019-02-23T00:54:39.296Z,0.10
2019-02-23T00:57:06.139Z,0.20
2019-02-23T00:59:32.986Z,0.20
2019-02-23T01:01:59.720Z,0.20
2019-02-23T01:04:27.384Z,0.20
2019-02-23T01:06:54.843Z,0.20
2019-02-23T01:09:21.681Z,0.20
2019-02-23T01:11:48.426Z,0.20
2019-02-23T01:14:15.271Z,0.20
2019-02-23T01:16:42.012Z,0.20
2019-02-23T01:19:08.746Z,0.30
2019-02-23T01:21:35.588Z,0.30
2019-02-23T01:24:02.431Z,0.30
2019-02-23T01:26:29.274Z,0.30
2019-02-23T01:28:56.118Z,0.20
2019-02-23T01:31:22.858Z,0.30
2019-02-23T01:33:49.601Z,0.30
2019-02-23T01:36:16.273Z,0.30
2019-02-23T01:38:43.080Z,0.30
2019-02-23T01:41:10.535Z,0.20
2019-02-23T01:43:38.199Z,0.30
2019-02-23T01:46:05.039Z,0.30
2019-02-23T01:48:32.600Z,0.30
2019-02-23T01:50:59.442Z,0.30
2019-02-23T01:53:26.306Z,0.30
2019-02-23T01:55:53.027Z,0.30
2019-02-23T01:58:19.766Z,0.30
2019-02-23T02:00:46.615Z,0.40
2019-02-23T02:03:13.554Z,0.40
2019-02-23T02:05:40.298Z,0.40
2019-02-23T02:08:07.138Z,0.40
2019-02-23T02:10:33.896Z,0.40
2019-02-23T02:13:00.727Z,0.40
2019-02-23T02:15:27.465Z,0.40
2019-02-23T02:17:54.913Z,0.40
2019-02-23T02:20:22.468Z,0.40
2019-02-23T02:22:50.143Z,0.40
2019-02-23T02:25:17.803Z,0.50
2019-02-23T02:27:45.671Z,0.40
2019-02-23T02:30:13.539Z,0.40
2019-02-23T02:32:41.002Z,0.40
2019-02-23T02:35:08.350Z,0.40
2019-02-23T02:37:35.704Z,0.50
2019-02-23T02:40:02.548Z,0.50
2019-02-23T02:42:29.393Z,0.50
2019-02-23T02:44:56.848Z,0.50
2019-02-23T02:47:23.693Z,0.40
2019-02-23T02:49:50.535Z,0.40
2019-02-23T02:52:17.302Z,0.40
2019-02-23T02:54:44.118Z,0.50
2019-02-23T02:57:11.580Z,0.50
2019-02-23T02:59:38.314Z,0.50
2019-02-23T03:02:05.875Z,0.50
2019-02-23T03:04:32.563Z,0.50
2019-02-23T03:06:59.460Z,0.50
2019-02-23T03:09:26.198Z,0.50
2019-02-23T03:11:52.938Z,0.60
2019-02-23T03:14:19.783Z,0.50
2019-02-23T03:16:47.446Z,0.60
2019-02-23T03:19:14.228Z,0.60
2019-02-23T03:21:41.131Z,0.60
2019-02-23T03:24:08.687Z,0.60
2019-02-23T03:26:36.556Z,0.60
2019-02-23T03:29:03.498Z,0.60
2019-02-23T03:31:30.444Z,0.70
2019-02-23T03:33:57.185Z,0.70
2019-02-23T03:36:24.947Z,0.70
2019-02-23T03:38:52.920Z,0.70
2019-02-23T03:41:20.478Z,0.70
2019-02-23T03:43:47.935Z,0.70
2019-02-23T03:46:15.291Z,0.70
2019-02-23T03:48:43.057Z,0.80
2019-02-23T03:51:09.800Z,0.80
2019-02-23T03:53:38.564Z,0.80
2019-02-23T03:56:06.455Z,0.80
2019-02-23T03:58:33.395Z,0.80
2019-02-23T04:01:00.853Z,0.90
2019-02-23T04:03:27.697Z,0.80
2019-02-23T04:05:54.441Z,0.80
2019-02-23T04:08:21.177Z,0.90
2019-02-23T04:10:48.634Z,0.80
2019-02-23T04:13:16.193Z,0.80
2019-02-23T04:15:43.634Z,0.80
2019-02-23T04:18:11.212Z,0.80
2019-02-23T04:20:38.058Z,0.80
2019-02-23T04:23:05.105Z,0.80
2019-02-23T04:25:31.947Z,0.90
2019-02-23T04:27:58.790Z,0.90
2019-02-23T04:30:25.628Z,0.90
2019-02-23T04:32:52.474Z,1.00
2019-02-23T04:35:19.211Z,1.00
2019-02-23T04:37:46.160Z,0.90
2019-02-23T04:40:12.900Z,0.90
2019-02-23T04:42:39.641Z,0.90
2019-02-23T04:45:06.484Z,1.00
2019-02-23T04:47:33.324Z,1.00
2019-02-23T04:50:00.307Z,1.00
2019-02-23T04:52:27.627Z,0.90
2019-02-23T04:54:54.366Z,0.90
2019-02-23T04:57:22.029Z,1.00
2019-02-23T04:59:48.975Z,0.90
2019-02-23T05:02:15.713Z,0.90
2019-02-23T05:04:42.465Z,1.00
2019-02-23T05:07:09.195Z,0.90
2019-02-23T05:09:36.867Z,1.00
2019-02-23T05:12:03.595Z,1.00
2019-02-23T05:14:31.051Z,1.00
2019-02-23T05:16:58.723Z,1.00
2019-02-23T05:19:25.455Z,1.00
2019-02-23T05:21:52.912Z,1.10
2019-02-23T05:24:19.657Z,1.00
2019-02-23T05:26:46.396Z,1.10
2019-02-23T05:29:13.980Z,1.10
2019-02-23T05:31:40.699Z,1.10
2019-02-23T05:34:07.432Z,1.20
2019-02-23T05:36:34.995Z,1.20
2019-02-23T05:39:02.658Z,1.20
2019-02-23T05:41:30.225Z,1.20
2019-02-23T05:43:56.955Z,1.20
2019-02-23T05:46:23.804Z,1.20
2019-02-23T05:48:50.645Z,1.20
2019-02-23T05:51:17.589Z,1.30
2019-02-23T05:53:44.557Z,1.20
2019-02-23T05:56:15.117Z,1.20
2019-02-23T05:58:38.427Z,1.30
2019-02-23T06:01:05.986Z,1.30
2019-02-23T06:03:32.727Z,1.30
2019-02-23T06:05:59.568Z,1.30
2019-02-23T06:08:27.024Z,1.40
2019-02-23T06:10:53.766Z,1.40
2019-02-23T06:13:20.502Z,1.40
2019-02-23T06:15:47.349Z,1.40
2019-02-23T06:18:14.085Z,1.40
2019-02-23T06:20:40.827Z,1.40
2019-02-23T06:23:08.391Z,1.50
2019-02-23T06:25:36.141Z,1.40
2019-02-23T06:28:11.707Z,1.50
2019-02-23T06:30:41.722Z,1.50
2019-02-23T06:33:08.456Z,1.50
2019-02-23T06:35:35.298Z,1.50
2019-02-23T06:38:02.962Z,1.50
2019-02-23T06:40:29.700Z,1.50
2019-02-23T06:42:57.870Z,1.60
2019-02-23T06:45:23.894Z,1.60
2019-02-23T06:47:51.149Z,1.60
2019-02-23T06:50:19.108Z,1.70
2019-02-23T06:52:46.781Z,1.60
2019-02-23T06:55:13.936Z,1.70
2019-02-23T06:57:40.802Z,1.60
2019-02-23T07:00:10.279Z,1.70
2019-02-23T07:02:37.653Z,1.70
2019-02-23T07:05:04.701Z,1.70
2019-02-23T07:07:32.458Z,1.70
2019-02-23T07:09:59.209Z,1.60
2019-02-23T07:12:26.235Z,1.70
2019-02-23T07:14:54.616Z,1.80
2019-02-23T07:17:22.658Z,1.80
2019-02-23T07:19:49.665Z,1.80
2019-02-23T07:22:16.857Z,1.80
2019-02-23T07:24:44.175Z,1.80
2019-02-23T07:27:12.437Z,1.90
2019-02-23T07:29:39.768Z,2.00
2019-02-23T07:32:07.316Z,2.00
2019-02-23T07:34:34.667Z,2.00
2019-02-23T07:37:01.629Z,2.00
2019-02-23T07:39:28.876Z,2.10
2019-02-23T07:41:56.031Z,2.10
2019-02-23T07:44:24.000Z,2.10
2019-02-23T07:46:51.368Z,2.20
2019-02-23T07:49:19.530Z,2.10
2019-02-23T07:51:46.355Z,2.20
2019-02-23T07:54:14.050Z,2.30
2019-02-23T07:56:40.812Z,2.30
2019-02-23T07:59:07.763Z,2.40
2019-02-23T08:01:34.875Z,2.40
2019-02-23T08:04:01.855Z,2.40
2019-02-23T08:06:28.803Z,2.60
2019-02-23T08:08:56.222Z,2.50
2019-02-23T08:11:23.305Z,2.80
2019-02-23T08:13:50.758Z,2.90
2019-02-23T08:16:18.690Z,2.70
2019-02-23T08:18:45.706Z,2.70
2019-02-23T08:21:12.866Z,2.70
2019-02-23T08:23:40.695Z,2.90
2019-02-23T08:26:07.579Z,2.90
2019-02-23T08:28:36.188Z,3.00
2019-02-23T08:31:06.545Z,3.20
2019-02-23T08:33:33.906Z,3.10
2019-02-23T08:36:01.051Z,2.90
2019-02-23T08:38:27.929Z,2.60
2019-02-23T08:40:55.109Z,2.60
2019-02-23T08:43:23.284Z,2.80
2019-02-23T08:45:50.520Z,3.00
2019-02-23T08:48:17.315Z,3.60
2019-02-23T08:50:46.026Z,4.00
2019-02-23T08:53:13.321Z,4.00
2019-02-23T08:55:40.446Z,4.10
2019-02-23T08:58:07.555Z,3.60
2019-02-23T09:00:35.453Z,3.40
2019-02-23T09:03:04.865Z,3.10
2019-02-23T09:05:32.039Z,3.10
2019-02-23T09:07:59.600Z,3.30
2019-02-23T09:10:28.467Z,3.60
2019-02-23T09:12:55.739Z,3.50
2019-02-23T09:15:23.721Z,3.50
2019-02-23T09:17:50.744Z,3.60
2019-02-23T09:20:28.264Z,3.50
2019-02-23T09:22:44.646Z,3.20
2019-02-23T09:25:12.404Z,3.10
2019-02-23T09:27:40.060Z,3.10
2019-02-23T09:30:14.133Z,3.10
2019-02-23T09:32:42.199Z,3.00
2019-02-23T09:35:09.442Z,3.20
2019-02-23T09:37:37.216Z,3.40
2019-02-23T09:40:08.018Z,3.40
2019-02-23T09:42:35.093Z,3.50
2019-02-23T09:45:04.934Z,3.80
2019-02-23T09:47:32.908Z,3.70
2019-02-23T09:49:59.832Z,3.40
2019-02-23T09:52:27.673Z,3.30
2019-02-23T09:54:55.508Z,3.00
2019-02-23T09:57:24.431Z,2.90
2019-02-23T09:59:53.195Z,3.00
2019-02-23T10:02:21.258Z,2.80
2019-02-23T10:04:48.505Z,2.80
2019-02-23T10:07:15.641Z,2.80
2019-02-23T10:09:43.301Z,3.00
2019-02-23T10:12:10.901Z,3.10
2019-02-23T10:14:38.883Z,3.10
2019-02-23T10:17:09.178Z,3.40
2019-02-23T10:19:33.987Z,3.40
2019-02-23T10:22:01.085Z,3.40
2019-02-23T10:24:28.952Z,3.50
2019-02-23T10:26:56.658Z,3.60
2019-02-23T10:29:24.738Z,3.50
2019-02-23T10:31:51.889Z,3.90
2019-02-23T10:34:19.872Z,3.70
2019-02-23T10:36:46.898Z,3.70
2019-02-23T10:39:14.815Z,3.70
2019-02-23T10:41:41.721Z,3.90
2019-02-23T10:44:08.444Z,4.00
2019-02-23T10:46:35.913Z,3.90
2019-02-23T10:49:02.889Z,3.90
2019-02-23T10:51:30.411Z,3.80
2019-02-23T10:53:57.148Z,3.50
2019-02-23T10:56:24.157Z,3.60
2019-02-23T10:58:50.954Z,3.70
2019-02-23T11:01:17.678Z,3.90
2019-02-23T11:03:44.439Z,4.20
2019-02-23T11:06:11.399Z,4.30
2019-02-23T11:08:38.753Z,4.40
2019-02-23T11:11:06.498Z,4.40
2019-02-23T11:13:33.279Z,4.40
2019-02-23T11:16:00.010Z,4.40
2019-02-23T11:18:26.742Z,4.50
2019-02-23T11:20:53.586Z,4.40
2019-02-23T11:23:20.610Z,4.40
2019-02-23T11:25:47.468Z,4.40
2019-02-23T11:28:14.301Z,4.50
2019-02-23T11:30:41.103Z,4.60
2019-02-23T11:33:08.617Z,4.80
2019-02-23T11:35:35.324Z,4.80
2019-02-23T11:38:02.285Z,4.90
2019-02-23T11:40:28.983Z,5.10
2019-02-23T11:42:57.374Z,5.10
2019-02-23T11:45:26.563Z,5.10
2019-02-23T11:47:55.467Z,5.10
2019-02-23T11:50:22.257Z,5.10
2019-02-23T11:52:49.109Z,5.10
2019-02-23T11:55:15.849Z,4.90
2019-02-23T11:57:42.955Z,4.80
2019-02-23T12:00:11.554Z,4.60
2019-02-23T12:02:39.229Z,4.80
2019-02-23T12:05:06.488Z,4.80
2019-02-23T12:07:33.351Z,5.00
2019-02-23T12:10:01.074Z,5.10
2019-02-23T12:12:28.058Z,5.00
2019-02-23T12:14:57.820Z,5.20
2019-02-23T12:19:59.737Z,5.00
2019-02-23T12:22:26.986Z,5.00
2019-02-23T12:24:54.141Z,5.00
2019-02-23T12:27:21.242Z,5.20
2019-02-23T12:29:48.613Z,5.10
2019-02-23T12:32:15.532Z,5.00
2019-02-23T12:34:42.826Z,5.30
2019-02-23T12:37:10.062Z,5.30
2019-02-23T12:39:39.345Z,5.20
2019-02-23T12:42:09.935Z,5.20
2019-02-23T12:44:38.312Z,5.20
2019-02-23T12:47:06.207Z,5.00
2019-02-23T12:49:32.963Z,4.80
2019-02-23T12:51:59.678Z,4.90
2019-02-23T12:54:26.639Z,4.90
2019-02-23T12:56:53.553Z,4.90
2019-02-23T12:59:23.148Z,4.90
2019-02-23T13:01:49.878Z,4.90
2019-02-23T13:04:16.593Z,5.10
2019-02-23T13:06:43.409Z,5.10
2019-02-23T13:09:12.323Z,5.40
2019-02-23T13:11:39.096Z,5.40
2019-02-23T13:14:13.649Z,5.40
2019-02-23T13:16:41.172Z,5.50
2019-02-23T13:19:11.039Z,5.50
2019-02-23T13:21:39.807Z,5.30
2019-02-23T13:24:28.697Z,5.30
2019-02-23T13:27:05.525Z,5.20
2019-02-23T13:29:39.321Z,5.00
2019-02-23T13:35:32.360Z,4.80
2019-02-23T13:38:06.118Z,4.90
2019-02-23T13:41:03.942Z,4.90
2019-02-23T13:46:42.103Z,4.80
2019-02-23T13:49:28.640Z,4.80
2019-02-23T13:51:57.996Z,4.70
2019-02-23T13:54:38.827Z,4.80
2019-02-23T14:00:27.076Z,4.60
2019-02-23T14:03:24.854Z,4.50
2019-02-23T14:09:18.857Z,4.50
2019-02-23T14:12:11.421Z,4.40
2019-02-23T14:14:46.019Z,4.40
2019-02-23T14:17:25.513Z,4.40
2019-02-23T14:19:55.967Z,4.40
2019-02-23T14:22:44.334Z,4.30
2019-02-23T14:25:19.868Z,4.20
2019-02-23T14:28:16.410Z,4.10
2019-02-23T14:30:52.155Z,4.20
2019-02-23T14:36:38.010Z,4.10
2019-02-23T14:39:13.020Z,4.10
2019-02-23T14:41:45.648Z,4.10
2019-02-23T14:44:35.648Z,4.10
2019-02-23T14:47:30.233Z,4.10
2019-02-23T14:53:32.226Z,4.20
2019-02-23T14:58:58.960Z,4.10
2019-02-23T15:01:28.803Z,4.10
2019-02-23T15:04:00.703Z,4.10
2019-02-23T15:07:00.947Z,4.10
2019-02-23T15:10:00.547Z,4.10
2019-02-23T15:12:52.098Z,4.00
2019-02-23T15:18:27.945Z,3.90
2019-02-23T15:21:06.823Z,3.80
2019-02-23T15:26:39.380Z,3.60
2019-02-23T15:29:24.674Z,3.60
2019-02-23T15:32:18.348Z,3.60
2019-02-23T15:35:06.941Z,3.60
2019-02-23T15:37:50.593Z,3.50
2019-02-23T15:40:36.745Z,3.50
2019-02-23T15:43:09.933Z,3.50
2019-02-23T15:45:42.759Z,3.50
2019-02-23T15:48:14.271Z,3.30
2019-02-23T15:50:41.013Z,3.30
2019-02-23T15:53:08.246Z,3.30
2019-02-23T15:55:35.019Z,3.30
2019-02-23T15:58:01.712Z,3.30
2019-02-23T16:00:29.130Z,3.30
2019-02-23T16:02:56.492Z,3.20
2019-02-23T16:05:25.003Z,3.20
2019-02-23T16:07:52.621Z,3.10
2019-02-23T16:10:20.238Z,3.00
2019-02-23T16:12:47.956Z,3.00
2019-02-23T16:15:15.009Z,2.90
2019-02-23T16:17:42.546Z,2.70
2019-02-23T16:20:10.223Z,2.70
2019-02-23T16:22:38.952Z,2.60
2019-02-23T16:25:05.998Z,2.60
2019-02-23T16:27:32.763Z,2.50
2019-02-23T16:29:59.709Z,2.50
2019-02-23T16:32:26.646Z,2.50
2019-02-23T16:34:54.057Z,2.50
2019-02-23T16:37:22.523Z,2.50
2019-02-23T16:39:49.324Z,2.40
2019-02-23T16:42:16.031Z,2.50
2019-02-23T16:44:43.991Z,2.40
2019-02-23T16:47:13.113Z,2.50
2019-02-23T16:49:39.821Z,2.40
2019-02-23T16:52:09.296Z,2.50
2019-02-23T16:54:34.488Z,2.50
2019-02-23T16:57:01.196Z,2.50
2019-02-23T16:59:30.300Z,2.50
2019-02-23T17:01:57.046Z,2.50
2019-02-23T17:04:23.728Z,2.50
2019-02-23T17:06:50.832Z,2.50
2019-02-23T17:09:17.594Z,2.70
2019-02-23T17:11:44.331Z,2.60
2019-02-23T17:14:11.143Z,2.60
2019-02-23T17:16:46.335Z,2.60
2019-02-23T17:19:13.856Z,2.60
2019-02-23T17:21:40.901Z,2.60
2019-02-23T17:24:08.742Z,2.50
2019-02-23T17:26:36.802Z,2.50
2019-02-23T17:29:02.407Z,2.50
2019-02-23T17:31:29.829Z,2.50
2019-02-23T17:33:57.053Z,2.50
2019-02-23T17:36:25.247Z,2.60
2019-02-23T17:38:52.277Z,2.50
2019-02-23T17:41:19.488Z,2.50
2019-02-23T17:43:46.152Z,2.50
2019-02-23T17:46:13.621Z,2.50
2019-02-23T17:48:41.142Z,2.50
2019-02-23T17:51:07.800Z,2.50
2019-02-23T17:53:35.274Z,2.50
2019-02-23T17:56:01.970Z,2.50
2019-02-23T17:58:28.765Z,2.40
2019-02-23T18:00:55.450Z,2.40
2019-02-23T18:03:22.122Z,2.40
2019-02-23T18:05:49.583Z,2.30
2019-02-23T18:08:16.296Z,2.30
2019-02-23T18:10:43.698Z,2.20
2019-02-23T18:13:11.936Z,2.20
2019-02-23T18:15:37.331Z,2.20
2019-02-23T18:18:04.029Z,2.10
2019-02-23T18:20:30.854Z,2.10
2019-02-23T18:22:58.266Z,2.10
2019-02-23T18:25:25.051Z,2.10
2019-02-23T18:27:52.473Z,2.00
2019-02-23T18:30:19.453Z,2.00
2019-02-23T18:32:46.192Z,2.00
2019-02-23T18:35:15.152Z,2.00
2019-02-23T18:37:41.454Z,2.00
2019-02-23T18:40:08.214Z,2.00
2019-02-23T18:42:34.932Z,2.00
2019-02-23T18:45:01.661Z,2.00
2019-02-23T18:47:28.377Z,1.90
2019-02-23T18:49:55.055Z,1.90
2019-02-23T18:52:21.859Z,2.00
2019-02-23T18:54:48.554Z,2.00
2019-02-23T18:57:15.972Z,1.90
2019-02-23T18:59:42.694Z,1.90
2019-02-23T19:02:09.410Z,1.90
2019-02-23T19:04:36.912Z,1.90
2019-02-23T19:07:03.617Z,1.90
2019-02-23T19:09:31.033Z,2.00
2019-02-23T19:11:58.543Z,2.00
2019-02-23T19:14:25.224Z,2.00
2019-02-23T19:16:51.999Z,2.00
2019-02-23T19:19:18.788Z,2.00
2019-02-23T19:21:45.476Z,2.00
2019-02-23T19:24:12.179Z,2.00
2019-02-23T19:26:38.887Z,2.00
2019-02-23T19:29:05.524Z,2.00
2019-02-23T19:31:32.218Z,2.00
2019-02-23T19:33:58.975Z,1.90
2019-02-23T19:36:26.680Z,1.90
2019-02-23T19:38:54.189Z,2.00
2019-02-23T19:41:21.703Z,2.00
2019-02-23T19:43:48.439Z,1.90
2019-02-23T19:46:15.170Z,2.00
2019-02-23T19:48:41.905Z,2.00
2019-02-23T19:51:08.749Z,2.00
2019-02-23T19:53:35.488Z,2.00
2019-02-23T19:56:04.995Z,2.00
2019-02-23T19:58:32.391Z,1.90
2019-02-23T20:00:59.090Z,2.00
2019-02-23T20:03:25.828Z,1.90
2019-02-23T20:05:53.493Z,1.90
2019-02-23T20:08:20.900Z,2.00
2019-02-23T20:10:47.574Z,2.00
2019-02-23T20:13:15.045Z,2.00
2019-02-23T20:15:41.786Z,2.00
2019-02-23T20:18:08.628Z,2.00
2019-02-23T20:20:35.287Z,2.00
2019-02-23T20:23:02.216Z,2.00
2019-02-23T20:25:28.950Z,1.90
2019-02-23T20:27:55.799Z,2.00
2019-02-23T20:30:22.744Z,2.00
2019-02-23T20:32:49.484Z,1.90
2019-02-23T20:35:16.234Z,1.90
2019-02-23T20:37:43.066Z,1.90
2019-02-23T20:40:10.133Z,1.80
2019-02-23T20:42:36.956Z,1.90
2019-02-23T20:45:03.797Z,1.80
2019-02-23T20:47:30.577Z,1.90
2019-02-23T20:49:57.258Z,1.80
2019-02-23T20:52:24.668Z,1.90
2019-02-23T20:54:51.347Z,1.80
2019-02-23T20:57:19.045Z,1.90
2019-02-23T20:59:45.776Z,1.90
2019-02-23T21:02:12.587Z,1.80
2019-02-23T21:04:40.214Z,1.80
2019-02-23T21:07:07.024Z,1.80
2019-02-23T21:09:33.786Z,1.90
2019-02-23T21:12:00.500Z,1.90
2019-02-23T21:14:27.163Z,1.90
2019-02-23T21:16:54.161Z,1.90
2019-02-23T21:19:21.533Z,2.00
2019-02-23T21:21:48.208Z,2.00
2019-02-23T21:24:14.919Z,2.10
2019-02-23T21:26:41.768Z,2.10
2019-02-23T21:29:08.466Z,2.10
2019-02-23T21:31:35.194Z,2.10
2019-02-23T21:34:02.053Z,2.10
2019-02-23T21:36:29.793Z,2.10
2019-02-23T21:38:58.800Z,2.10
2019-02-23T21:41:26.336Z,2.10
2019-02-23T21:43:53.145Z,2.10
2019-02-23T21:46:20.082Z,2.20
2019-02-23T21:48:46.941Z,2.20
2019-02-23T21:51:13.732Z,2.20
2019-02-23T21:53:40.552Z,2.20
2019-02-23T21:56:10.941Z,2.20
2019-02-23T21:58:38.479Z,2.20
2019-02-23T22:01:05.323Z,2.20
2019-02-23T22:03:32.111Z,2.20
2019-02-23T22:05:59.569Z,2.20
2019-02-23T22:08:27.103Z,2.20
2019-02-23T22:10:53.903Z,2.20
2019-02-23T22:13:23.499Z,2.20
2019-02-23T22:15:50.958Z,2.20
2019-02-23T22:18:17.732Z,2.20
2019-02-23T22:20:45.256Z,2.20
2019-02-23T22:23:12.555Z,2.10
2019-02-23T22:25:39.287Z,2.20
2019-02-23T22:28:07.027Z,2.20
2019-02-23T22:30:35.283Z,2.20
2019-02-23T22:33:02.011Z,2.20
2019-02-23T22:35:30.710Z,2.20
2019-02-23T22:37:57.829Z,2.20
2019-02-23T22:40:24.587Z,2.20
2019-02-23T22:42:51.813Z,2.20
2019-02-23T22:45:18.599Z,2.20
2019-02-23T22:47:45.380Z,2.20
2019-02-23T22:50:12.844Z,2.20
2019-02-23T22:52:40.478Z,2.20
2019-02-23T22:57:41.829Z,2.20
2019-02-23T23:00:10.743Z,2.20
2019-02-23T23:02:38.760Z,2.20
2019-02-23T23:05:05.639Z,2.10
2019-02-23T23:07:32.439Z,2.10
2019-02-23T23:09:59.167Z,2.10
2019-02-23T23:12:26.289Z,2.20
2019-02-23T23:14:53.777Z,2.20
2019-02-23T23:17:20.467Z,2.20
2019-02-23T23:19:47.127Z,2.20
2019-02-23T23:22:17.817Z,2.30
2019-02-23T23:24:45.557Z,2.20
2019-02-23T23:27:12.256Z,2.20
2019-02-23T23:29:39.095Z,2.20
2019-02-23T23:32:05.861Z,2.20
2019-02-23T23:34:32.762Z,2.20
2019-02-23T23:37:01.124Z,2.20
2019-02-23T23:39:28.579Z,2.20
2019-02-23T23:41:55.790Z,2.20
2019-02-23T23:44:24.762Z,2.20
2019-02-23T23:46:52.678Z,2.20
2019-02-23T23:49:19.604Z,2.30
2019-02-23T23:51:47.035Z,2.30
2019-02-23T23:54:14.791Z,2.30
2019-02-23T23:56:42.476Z,2.30
2019-02-23T23:59:09.301Z,2.30
